Time;durP1;ratioP1;P1;durP2;ratioP2;P2;SDS_P1;SDS_P2;PMS_P1;PMS_P2;Temp;Humidity;BMP_temperature;BMP_pressure;BME280_temperature;BME280_humidity;BME280_pressure;Samples;Min_cycle;Max_cycle;Signal;HPM_P1;HPM_P2
2021/12/19 00:01:59;;;;;;;10.43;4.75;;;6.30;88.20;;;;;;5007726;28;20053;-75
2021/12/19 00:04:43;;;;;;;8.50;4.60;;;6.30;88.20;;;;;;5010744;28;20065;-75
2021/12/19 00:10:39;;;;;;;5.89;2.50;;;6.30;88.20;;;;;;3339501;28;10022122;-73
2021/12/19 00:13:06;;;;;;;7.95;2.85;;;6.30;88.10;;;;;;2935814;28;10001891;-73
2021/12/19 00:15:33;;;;;;;8.95;4.43;;;6.30;88.10;;;;;;4993264;28;20416;-74
2021/12/19 00:18:00;;;;;;;6.88;3.35;;;6.30;88.10;;;;;;5010235;28;20137;-73
2021/12/19 00:20:36;;;;;;;10.65;3.55;;;6.30;88.10;;;;;;5011105;28;20049;-75
2021/12/19 00:23:03;;;;;;;8.88;3.72;;;6.30;88.10;;;;;;5009836;28;20046;-75
2021/12/19 00:25:30;;;;;;;9.02;3.85;;;6.30;88.10;;;;;;5010372;28;20124;-75
2021/12/19 00:27:57;;;;;;;9.45;3.97;;;6.30;88.10;;;;;;5009980;28;20149;-75
2021/12/19 00:30:24;;;;;;;10.65;3.85;;;6.30;88.10;;;;;;5010555;28;20041;-75
2021/12/19 00:32:51;;;;;;;8.68;3.38;;;6.30;88.10;;;;;;5009717;28;20052;-77
2021/12/19 00:35:19;;;;;;;8.15;3.55;;;6.30;88.10;;;;;;5010740;28;20070;-74
2021/12/19 00:37:47;;;;;;;6.22;3.15;;;6.30;88.10;;;;;;5008989;28;20712;-74
2021/12/19 00:40:14;;;;;;;8.82;3.08;;;6.30;88.20;;;;;;5008905;28;20128;-74
2021/12/19 00:42:42;;;;;;;8.20;3.42;;;6.20;88.20;;;;;;5007739;28;20077;-76
2021/12/19 00:45:16;;;;;;;8.70;3.50;;;6.30;88.20;;;;;;5008849;28;20065;-74
2021/12/19 00:47:43;;;;;;;9.30;3.95;;;6.20;88.30;;;;;;5008285;28;20038;-74
2021/12/19 00:50:10;;;;;;;9.07;3.53;;;6.30;88.30;;;;;;5008411;28;20128;-74
2021/12/19 00:52:37;;;;;;;7.43;3.13;;;6.20;88.30;;;;;;5009881;28;20050;-76
2021/12/19 00:55:07;;;;;;;9.00;3.33;;;6.20;88.30;;;;;;5011864;28;20125;-75
2021/12/19 00:57:34;;;;;;;8.73;3.28;;;6.20;88.30;;;;;;5011771;28;20156;-75
2021/12/19 01:00:01;;;;;;;7.45;3.22;;;6.20;88.30;;;;;;5011627;28;20128;-75
2021/12/19 01:02:31;;;;;;;7.97;3.33;;;6.30;88.30;;;;;;5013083;28;20451;-73
2021/12/19 01:04:58;;;;;;;6.90;2.95;;;6.20;88.30;;;;;;5012461;28;20531;-74
2021/12/19 01:07:25;;;;;;;7.63;2.90;;;6.20;88.30;;;;;;5011861;28;20502;-76
2021/12/19 01:09:52;;;;;;;10.23;3.17;;;6.20;88.30;;;;;;5012975;28;20042;-74
2021/12/19 01:12:20;;;;;;;6.35;3.25;;;6.30;88.30;;;;;;5013012;28;20052;-74
2021/12/19 01:14:47;;;;;;;6.97;2.53;;;6.30;88.20;;;;;;5012728;28;20050;-75
2021/12/19 01:17:14;;;;;;;8.02;3.35;;;6.20;88.20;;;;;;5013053;28;20076;-73
2021/12/19 01:19:41;;;;;;;7.90;3.17;;;6.20;88.20;;;;;;5013515;28;20048;-75
2021/12/19 01:22:08;;;;;;;6.28;3.05;;;6.20;88.20;;;;;;5013807;28;20069;-73
2021/12/19 01:24:35;;;;;;;7.05;3.50;;;6.20;88.20;;;;;;5013844;28;20046;-75
2021/12/19 01:27:02;;;;;;;7.93;3.78;;;6.20;88.20;;;;;;5012811;28;20045;-73
2021/12/19 01:29:31;;;;;;;7.13;2.92;;;6.20;88.10;;;;;;5013556;28;20124;-73
2021/12/19 01:31:59;;;;;;;8.40;3.70;;;6.30;88.20;;;;;;5012441;28;20056;-73
2021/12/19 01:34:25;;;;;;;8.18;3.80;;;6.20;88.10;;;;;;5013003;28;20052;-73
2021/12/19 01:36:52;;;;;;;5.97;2.63;;;6.20;88.10;;;;;;5013083;28;20064;-73
2021/12/19 01:39:19;;;;;;;6.88;3.15;;;6.20;88.10;;;;;;5012089;28;20046;-75
2021/12/19 01:41:48;;;;;;;6.53;3.00;;;6.20;88.10;;;;;;5012992;28;20071;-74
2021/12/19 01:44:15;;;;;;;7.68;3.28;;;6.20;88.20;;;;;;5013693;28;20046;-74
2021/12/19 01:46:46;;;;;;;7.60;2.65;;;6.20;88.20;;;;;;5013507;28;20125;-74
2021/12/19 01:49:13;;;;;;;6.07;2.70;;;6.20;88.20;;;;;;5013174;28;20049;-74
2021/12/19 01:51:40;;;;;;;7.47;2.90;;;6.20;88.20;;;;;;5012771;28;20069;-73
2021/12/19 01:54:07;;;;;;;7.55;2.97;;;6.20;88.20;;;;;;5012828;28;20053;-75
2021/12/19 01:56:35;;;;;;;7.35;3.17;;;6.20;88.20;;;;;;5012778;28;20060;-73
2021/12/19 01:59:02;;;;;;;6.90;3.30;;;6.20;88.20;;;;;;5004259;28;20050;-73
2021/12/19 02:01:29;;;;;;;8.27;3.03;;;6.20;88.20;;;;;;5010586;28;20495;-75
2021/12/19 02:03:58;;;;;;;8.43;3.33;;;6.20;88.20;;;;;;5011832;28;20042;-74
2021/12/19 02:06:25;;;;;;;6.18;3.05;;;6.20;88.10;;;;;;5012380;28;20502;-76
2021/12/19 02:08:55;;;;;;;8.32;2.92;;;6.20;88.10;;;;;;5012964;28;20046;-75
2021/12/19 02:11:22;;;;;;;6.70;2.83;;;6.20;88.20;;;;;;5012494;28;20176;-73
2021/12/19 02:13:49;;;;;;;7.28;2.78;;;6.20;88.20;;;;;;5012945;28;20072;-73
2021/12/19 02:16:16;;;;;;;7.60;2.95;;;6.20;88.20;;;;;;5012701;28;20088;-75
2021/12/19 02:18:43;;;;;;;6.78;2.80;;;6.20;88.20;;;;;;5010535;28;20454;-73
2021/12/19 02:21:11;;;;;;;8.18;3.42;;;6.20;88.20;;;;;;5011073;28;20056;-75
2021/12/19 02:23:38;;;;;;;6.68;3.28;;;6.20;88.20;;;;;;5010774;28;20045;-76
2021/12/19 02:26:05;;;;;;;6.65;2.78;;;6.20;88.10;;;;;;5010881;28;20526;-76
2021/12/19 02:28:32;;;;;;;8.05;2.88;;;6.20;88.10;;;;;;5009866;28;20041;-74
2021/12/19 02:30:59;;;;;;;8.02;2.90;;;6.20;88.00;;;;;;5010986;28;20060;-76
2021/12/19 02:33:28;;;;;;;8.60;3.25;;;6.20;88.00;;;;;;5011232;28;20078;-74
2021/12/19 02:36:02;;;;;;;6.10;2.50;;;6.20;88.00;;;;;;5010271;28;20053;-74
2021/12/19 02:49:37;;;;;;;6.88;3.10;;;6.20;87.90;;;;;;5009389;28;20049;-75
2021/12/19 02:52:11;;;;;;;5.72;2.30;;;6.20;87.90;;;;;;5010714;28;20504;-74
2021/12/19 02:54:40;;;;;;;7.03;3.13;;;6.20;88.00;;;;;;5009901;28;20040;-73
2021/12/19 02:57:07;;;;;;;5.82;2.55;;;6.20;87.90;;;;;;5011619;28;20049;-73
2021/12/19 02:59:34;;;;;;;7.55;2.88;;;6.20;87.90;;;;;;4994389;28;20411;-74
2021/12/19 03:02:02;;;;;;;8.18;3.58;;;6.20;87.90;;;;;;5009463;28;20045;-74
2021/12/19 03:04:29;;;;;;;6.45;2.78;;;6.20;87.90;;;;;;5012012;28;20049;-73
2021/12/19 03:06:56;;;;;;;7.55;2.78;;;6.20;87.90;;;;;;5011082;28;20614;-73
2021/12/19 03:09:50;;;;;;;6.63;2.55;;;6.20;87.90;;;;;;5010368;28;20049;-74
2021/12/19 03:12:37;;;;;;;6.17;2.77;;;6.20;87.80;;;;;;5012067;28;20046;-73
2021/12/19 03:18:05;;;;;;;8.45;2.90;;;6.20;87.80;;;;;;5011979;28;20123;-75
2021/12/19 03:20:33;;;;;;;8.30;2.85;;;6.20;87.90;;;;;;5011875;28;20061;-76
2021/12/19 03:23:01;;;;;;;6.50;3.35;;;6.20;87.70;;;;;;5011258;28;20046;-76
2021/12/19 03:25:30;;;;;;;7.65;2.83;;;6.20;87.80;;;;;;5010996;28;20050;-74
2021/12/19 03:28:00;;;;;;;15.95;3.83;;;6.30;87.70;;;;;;5011152;28;20425;-74
2021/12/19 03:30:32;;;;;;;5.50;2.58;;;6.30;87.70;;;;;;5011033;28;20074;-73
2021/12/19 03:32:59;;;;;;;6.50;2.88;;;6.20;87.70;;;;;;5011194;28;20046;-73
2021/12/19 03:35:27;;;;;;;6.75;3.50;;;6.30;87.60;;;;;;5011687;28;20128;-75
2021/12/19 03:37:54;;;;;;;5.13;2.22;;;6.30;87.50;;;;;;5011436;28;20065;-76
2021/12/19 03:40:24;;;;;;;4.93;2.35;;;6.30;87.40;;;;;;5010436;28;20038;-74
2021/12/19 03:42:53;;;;;;;5.20;2.20;;;6.30;87.50;;;;;;5010951;28;20077;-73
2021/12/19 03:45:24;;;;;;;5.63;2.60;;;6.30;87.30;;;;;;5010852;28;20046;-76
2021/12/19 03:47:51;;;;;;;8.85;3.67;;;6.30;87.40;;;;;;5010858;28;20046;-74
2021/12/19 03:50:22;;;;;;;7.20;2.97;;;6.20;87.50;;;;;;4992593;28;20058;-74
2021/12/19 03:52:50;;;;;;;9.38;3.55;;;6.20;87.50;;;;;;5010909;28;20045;-73
2021/12/19 03:55:18;;;;;;;8.15;3.83;;;6.20;87.40;;;;;;5011128;28;20499;-74
2021/12/19 03:57:45;;;;;;;9.20;3.67;;;6.20;87.50;;;;;;5009502;28;20107;-75
2021/12/19 04:00:16;;;;;;;10.02;4.07;;;6.20;87.50;;;;;;5006841;28;20042;-75
2021/12/19 04:02:46;;;;;;;7.57;3.20;;;6.20;87.50;;;;;;5008334;28;20056;-74
2021/12/19 04:05:14;;;;;;;9.23;3.13;;;6.20;87.50;;;;;;5008585;28;20505;-74
2021/12/19 04:07:41;;;;;;;12.63;4.53;;;6.20;87.50;;;;;;5007959;28;20133;-73
2021/12/19 04:10:09;;;;;;;11.10;4.53;;;6.20;87.50;;;;;;5009193;28;20554;-75
2021/12/19 04:12:39;;;;;;;7.00;3.63;;;6.20;87.60;;;;;;5009761;28;20049;-76
2021/12/19 04:15:07;;;;;;;10.27;4.57;;;6.10;87.60;;;;;;5008389;28;20053;-74
2021/12/19 04:17:40;;;;;;;8.73;3.63;;;6.20;87.70;;;;;;5008842;28;20037;-74
2021/12/19 04:20:11;;;;;;;12.02;4.20;;;6.10;87.70;;;;;;5008696;28;20046;-75
2021/12/19 04:22:39;;;;;;;10.55;5.03;;;6.20;87.70;;;;;;5005038;28;20045;-75
2021/12/19 04:25:06;;;;;;;11.80;4.45;;;6.20;87.80;;;;;;5006706;28;20045;-76
2021/12/19 04:27:34;;;;;;;11.27;5.22;;;6.10;87.80;;;;;;5007577;28;20048;-75
2021/12/19 04:30:01;;;;;;;11.57;4.70;;;6.20;87.80;;;;;;5008252;28;20048;-74
2021/12/19 04:32:33;;;;;;;12.90;4.82;;;6.20;87.80;;;;;;5008701;28;20121;-75
2021/12/19 04:35:00;;;;;;;10.90;4.30;;;6.20;87.80;;;;;;5008865;28;20127;-74
2021/12/19 04:37:57;;;;;;;13.95;5.45;;;6.20;87.80;;;;;;5009823;28;20046;-73
2021/12/19 04:40:26;;;;;;;11.85;5.65;;;6.20;87.80;;;;;;5009189;28;20443;-74
2021/12/19 04:51:51;;;;;;;11.95;4.30;;;6.20;87.70;;;;;;4983095;28;20561;-75
2021/12/19 04:54:30;;;;;;;14.05;5.15;;;6.20;87.70;;;;;;5008602;28;20045;-74
2021/12/19 04:57:09;;;;;;;9.07;3.75;;;6.20;87.60;;;;;;5009813;28;20121;-77
2021/12/19 04:59:51;;;;;;;10.75;4.65;;;6.20;87.60;;;;;;5008451;28;20054;-74
2021/12/19 05:02:30;;;;;;;10.73;4.18;;;6.10;87.50;;;;;;5008122;28;20095;-72
2021/12/19 05:16:08;;;;;;;8.60;3.60;;;6.20;87.20;;;;;;5009465;28;20129;-73
2021/12/19 05:18:38;;;;;;;8.40;4.05;;;6.20;87.20;;;;;;5010524;28;20053;-74
2021/12/19 05:21:10;;;;;;;8.57;4.03;;;6.20;87.20;;;;;;5008498;28;20061;-75
2021/12/19 05:23:51;;;;;;;10.60;4.35;;;6.20;87.10;;;;;;5009447;28;20100;-76
2021/12/19 05:26:20;;;;;;;10.50;3.90;;;6.20;87.10;;;;;;5010295;28;20053;-73
2021/12/19 05:28:48;;;;;;;8.18;3.40;;;6.20;87.00;;;;;;5010229;28;20050;-75
2021/12/19 05:31:16;;;;;;;7.65;3.63;;;6.20;87.00;;;;;;5010016;28;20467;-73
2021/12/19 05:33:44;;;;;;;8.63;3.72;;;6.20;87.00;;;;;;5007867;28;20061;-73
2021/12/19 05:47:24;;;;;;;7.75;3.92;;;6.20;86.90;;;;;;4949784;28;20106;-77
2021/12/19 05:49:51;;;;;;;7.43;3.15;;;6.20;86.90;;;;;;4982859;28;20128;-75
2021/12/19 05:52:18;;;;;;;9.82;3.70;;;6.20;86.90;;;;;;5011082;28;20046;-74
2021/12/19 05:54:45;;;;;;;9.13;4.05;;;6.20;86.90;;;;;;5011216;28;20129;-73
2021/12/19 05:57:15;;;;;;;9.60;3.38;;;6.20;86.80;;;;;;5011427;28;20046;-73
2021/12/19 05:59:42;;;;;;;6.80;3.47;;;6.20;86.90;;;;;;5011571;28;20064;-74
2021/12/19 06:02:09;;;;;;;7.70;3.58;;;6.20;86.90;;;;;;5009415;28;20045;-73
2021/12/19 06:04:35;;;;;;;9.20;3.58;;;6.10;86.90;;;;;;5011544;28;20048;-73
2021/12/19 06:07:07;;;;;;;8.05;3.35;;;6.20;86.90;;;;;;5010879;28;20049;-75
2021/12/19 06:09:34;;;;;;;13.45;4.15;;;6.20;86.90;;;;;;5010283;28;20038;-75
2021/12/19 06:12:01;;;;;;;10.60;4.10;;;6.20;86.90;;;;;;5011133;28;20554;-74
2021/12/19 06:14:33;;;;;;;11.82;4.30;;;6.20;86.90;;;;;;5011060;28;20042;-73
2021/12/19 06:17:00;;;;;;;10.98;3.22;;;6.10;86.90;;;;;;5011694;28;20491;-74
2021/12/19 06:19:36;;;;;;;10.70;3.90;;;6.20;86.90;;;;;;5013191;28;20115;-74
2021/12/19 06:22:05;;;;;;;9.57;4.75;;;6.20;86.90;;;;;;4995314;28;20104;-76
2021/12/19 06:24:32;;;;;;;10.00;3.70;;;6.10;87.00;;;;;;5012950;28;20124;-74
2021/12/19 06:26:59;;;;;;;10.48;5.03;;;6.10;87.00;;;;;;5011532;28;20534;-76
2021/12/19 06:29:28;;;;;;;12.15;4.50;;;6.10;87.00;;;;;;5012445;28;20041;-73
2021/12/19 06:31:57;;;;;;;10.15;3.95;;;6.20;87.00;;;;;;5012006;28;20499;-74
2021/12/19 06:34:24;;;;;;;9.65;4.28;;;6.20;87.00;;;;;;5012449;28;20053;-74
2021/12/19 06:36:54;;;;;;;10.20;3.88;;;6.20;87.00;;;;;;5012506;28;20050;-75
2021/12/19 06:39:21;;;;;;;10.10;4.55;;;6.20;87.00;;;;;;5011939;28;20049;-74
2021/12/19 06:41:48;;;;;;;11.23;4.38;;;6.20;87.00;;;;;;5012562;28;20045;-75
2021/12/19 06:44:15;;;;;;;12.13;4.60;;;6.20;87.00;;;;;;5012261;28;20068;-74
2021/12/19 06:46:43;;;;;;;11.63;4.82;;;6.20;87.00;;;;;;5012612;28;20042;-74
2021/12/19 06:49:11;;;;;;;13.40;5.55;;;6.20;87.00;;;;;;5011606;28;20054;-77
2021/12/19 06:51:38;;;;;;;9.40;4.45;;;6.20;87.00;;;;;;5011630;28;20112;-77
2021/12/19 06:54:07;;;;;;;13.70;5.32;;;6.20;87.00;;;;;;5012680;28;20045;-73
2021/12/19 06:56:40;;;;;;;9.52;4.43;;;6.10;87.00;;;;;;5011601;28;20532;-74
2021/12/19 06:59:07;;;;;;;12.52;5.28;;;6.20;87.00;;;;;;5012149;28;20060;-75
2021/12/19 07:01:37;;;;;;;10.15;4.55;;;6.20;87.00;;;;;;5009040;28;20531;-74
2021/12/19 07:04:04;;;;;;;14.35;5.50;;;6.20;87.00;;;;;;5012250;28;20041;-73
2021/12/19 07:06:33;;;;;;;12.57;4.53;;;6.20;87.10;;;;;;5012097;28;20412;-73
2021/12/19 07:09:01;;;;;;;11.52;4.95;;;6.20;87.00;;;;;;5012519;28;20046;-74
2021/12/19 07:11:27;;;;;;;11.52;4.75;;;6.10;87.10;;;;;;4994535;28;20442;-77
2021/12/19 07:13:54;;;;;;;11.55;4.95;;;6.10;87.10;;;;;;5011247;28;20056;-75
2021/12/19 07:16:21;;;;;;;9.77;4.15;;;6.10;87.10;;;;;;5012027;28;20049;-73
2021/12/19 07:18:49;;;;;;;11.13;4.40;;;6.10;87.10;;;;;;5010038;28;20064;-74
2021/12/19 07:21:16;;;;;;;12.30;4.63;;;6.20;87.20;;;;;;5009863;28;20046;-75
2021/12/19 07:23:44;;;;;;;11.23;4.57;;;6.20;87.10;;;;;;5009950;28;20069;-74
2021/12/19 07:26:14;;;;;;;11.38;5.03;;;6.20;87.10;;;;;;5009240;28;20052;-72
2021/12/19 07:28:44;;;;;;;13.27;4.70;;;6.20;87.10;;;;;;5009610;28;20042;-75
2021/12/19 07:31:11;;;;;;;10.57;4.43;;;6.20;87.00;;;;;;5010094;28;20457;-74
2021/12/19 07:33:38;;;;;;;11.10;4.07;;;6.20;87.00;;;;;;4991789;28;20045;-73
2021/12/19 07:36:05;;;;;;;11.10;4.95;;;6.20;87.00;;;;;;5009551;28;20081;-76
2021/12/19 07:38:37;;;;;;;11.13;5.03;;;6.20;87.00;;;;;;5005192;28;20056;-73
2021/12/19 07:41:05;;;;;;;12.00;5.00;;;6.20;87.00;;;;;;5009564;28;20042;-76
2021/12/19 07:43:32;;;;;;;8.63;3.20;;;6.20;87.00;;;;;;5007944;28;20049;-74
2021/12/19 07:45:59;;;;;;;9.07;4.65;;;6.20;87.00;;;;;;5007981;28;20053;-75
2021/12/19 07:48:26;;;;;;;9.13;4.05;;;6.20;87.00;;;;;;5008853;28;20117;-74
2021/12/19 07:50:54;;;;;;;10.43;4.35;;;6.20;87.00;;;;;;5008761;28;20042;-75
2021/12/19 07:53:21;;;;;;;11.50;5.35;;;6.20;87.00;;;;;;5008609;28;20589;-75
2021/12/19 07:55:48;;;;;;;11.82;4.22;;;6.20;87.00;;;;;;5009767;28;20510;-74
2021/12/19 07:58:16;;;;;;;10.93;4.05;;;6.20;87.00;;;;;;5009350;28;20054;-74
2021/12/19 08:00:43;;;;;;;8.98;4.22;;;6.20;87.00;;;;;;5006338;28;20400;-74
2021/12/19 08:03:10;;;;;;;8.52;4.13;;;6.20;87.00;;;;;;5009038;28;20042;-73
2021/12/19 08:05:37;;;;;;;8.68;4.88;;;6.20;87.00;;;;;;5010503;28;20048;-73
2021/12/19 08:08:05;;;;;;;11.10;4.50;;;6.20;87.10;;;;;;5010928;28;20129;-75
2021/12/19 08:13:18;;;;;;;9.95;4.63;;;6.20;87.10;;;;;;5011359;28;20450;-76
2021/12/19 08:15:45;;;;;;;8.95;3.67;;;6.20;87.00;;;;;;5010189;28;20531;-75
2021/12/19 08:18:12;;;;;;;8.88;4.35;;;6.30;87.00;;;;;;5010348;28;20068;-75
2021/12/19 08:20:39;;;;;;;7.25;3.28;;;6.30;87.00;;;;;;5011053;28;20059;-73
2021/12/19 08:23:06;;;;;;;9.65;4.10;;;6.20;87.00;;;;;;5010945;28;20072;-75
2021/12/19 08:25:33;;;;;;;9.45;3.97;;;6.30;87.10;;;;;;5010548;28;20133;-76
2021/12/19 08:28:00;;;;;;;11.52;4.22;;;6.30;87.00;;;;;;5010227;28;20054;-74
2021/12/19 08:30:31;;;;;;;8.98;3.38;;;6.30;87.00;;;;;;5010595;28;20050;-73
2021/12/19 08:32:58;;;;;;;8.88;4.05;;;6.30;87.00;;;;;;5007404;28;20045;-76
2021/12/19 08:35:25;;;;;;;10.52;4.15;;;6.30;87.00;;;;;;5008205;28;20038;-73
2021/12/19 08:37:52;;;;;;;10.73;4.72;;;6.30;87.00;;;;;;5010607;28;20041;-73
2021/12/19 08:40:22;;;;;;;9.05;3.75;;;6.30;87.00;;;;;;5010511;28;20041;-74
2021/12/19 08:42:49;;;;;;;8.88;4.03;;;6.40;87.00;;;;;;5010588;28;20053;-73
2021/12/19 08:45:16;;;;;;;10.93;4.35;;;6.40;87.00;;;;;;5009982;28;20049;-74
2021/12/19 08:47:45;;;;;;;9.55;4.10;;;6.40;87.10;;;;;;5010662;28;20058;-75
2021/12/19 08:50:12;;;;;;;13.13;4.15;;;6.40;87.00;;;;;;5008783;28;20046;-76
2021/12/19 08:52:40;;;;;;;9.52;4.03;;;6.40;87.00;;;;;;5010047;28;20042;-76
2021/12/19 08:55:09;;;;;;;9.35;4.57;;;6.40;87.00;;;;;;5010122;28;20381;-73
2021/12/19 08:57:37;;;;;;;8.27;3.63;;;6.40;87.00;;;;;;5008673;28;20054;-74
2021/12/19 09:00:05;;;;;;;10.02;4.38;;;6.40;87.10;;;;;;5005994;28;20046;-72
2021/12/19 09:02:32;;;;;;;12.30;5.15;;;6.40;87.10;;;;;;5008615;28;20038;-74
2021/12/19 09:05:01;;;;;;;9.43;3.65;;;6.40;87.00;;;;;;5008118;28;20046;-75
2021/12/19 09:07:32;;;;;;;10.35;4.45;;;6.40;87.00;;;;;;5006122;28;20403;-76
2021/12/19 09:09:59;;;;;;;9.85;4.20;;;6.40;86.90;;;;;;5008343;28;20041;-77
2021/12/19 09:12:27;;;;;;;8.98;3.72;;;6.40;86.90;;;;;;5008536;28;20052;-77
2021/12/19 09:14:55;;;;;;;9.30;4.32;;;6.40;86.90;;;;;;5012049;28;20050;-76
2021/12/19 09:17:22;;;;;;;10.32;3.60;;;6.50;86.90;;;;;;5011850;28;20522;-76
2021/12/19 09:19:49;;;;;;;10.48;4.50;;;6.50;86.90;;;;;;5012224;28;20488;-75
2021/12/19 09:22:18;;;;;;;10.73;4.55;;;6.50;86.70;;;;;;5011436;28;20136;-73
2021/12/19 09:24:45;;;;;;;10.55;4.47;;;6.60;86.70;;;;;;5012275;28;20054;-75
2021/12/19 09:27:12;;;;;;;16.00;5.10;;;6.60;86.60;;;;;;5012186;28;20046;-75
2021/12/19 09:29:39;;;;;;;8.77;3.90;;;6.60;86.60;;;;;;5011858;28;20383;-76
2021/12/19 09:32:07;;;;;;;10.63;4.20;;;6.60;86.60;;;;;;5011378;28;20149;-74
2021/12/19 09:34:34;;;;;;;8.82;4.28;;;6.60;86.60;;;;;;5011685;28;20052;-74
2021/12/19 09:37:02;;;;;;;10.20;4.68;;;6.60;86.70;;;;;;5012914;28;20073;-77
2021/12/19 09:39:33;;;;;;;11.48;4.53;;;6.60;86.70;;;;;;5011533;28;20514;-75
2021/12/19 09:42:08;;;;;;;10.20;4.97;;;6.60;86.70;;;;;;5009663;28;20077;-74
2021/12/19 09:44:36;;;;;;;8.40;4.20;;;6.60;86.70;;;;;;5013250;28;20046;-73
2021/12/19 09:47:04;;;;;;;10.70;4.55;;;6.70;86.70;;;;;;5013278;28;20050;-76
2021/12/19 09:49:33;;;;;;;10.23;4.72;;;6.60;86.50;;;;;;5012144;28;20136;-77
2021/12/19 09:52:01;;;;;;;11.55;4.40;;;6.70;86.50;;;;;;5013616;28;20041;-74
2021/12/19 09:54:29;;;;;;;15.88;4.60;;;6.70;86.40;;;;;;5012379;28;20054;-75
2021/12/19 09:56:58;;;;;;;8.85;4.32;;;6.70;86.30;;;;;;5012910;28;20144;-73
2021/12/19 09:59:25;;;;;;;10.70;4.75;;;6.70;86.30;;;;;;5012130;28;20097;-74
2021/12/19 10:01:53;;;;;;;9.93;4.05;;;6.70;86.20;;;;;;5008593;28;20119;-76
2021/12/19 10:04:33;;;;;;;12.43;4.70;;;6.70;86.30;;;;;;5012767;28;20411;-73
2021/12/19 10:07:13;;;;;;;11.93;4.97;;;6.70;86.20;;;;;;5012586;28;20112;-73
2021/12/19 10:09:54;;;;;;;13.13;4.78;;;6.70;86.20;;;;;;5012656;28;20050;-74
2021/12/19 10:12:38;;;;;;;;;;;6.80;86.20;;;;;;5011240;28;20049;-73
2021/12/19 10:15:09;;;;;;;10.25;3.88;;;6.80;86.20;;;;;;5012959;28;19929;-74
2021/12/19 10:17:36;;;;;;;;;;;6.70;86.10;;;;;;5012910;28;20100;-73
2021/12/19 10:20:06;;;;;;;9.82;3.97;;;6.80;86.10;;;;;;5013260;28;20007;-75
2021/12/19 10:22:34;;;;;;;9.48;4.65;;;6.80;86.10;;;;;;5012609;28;20050;-76
2021/12/19 10:25:20;;;;;;;13.27;5.30;;;6.80;86.20;;;;;;5012122;28;20120;-76
2021/12/19 10:27:50;;;;;;;9.45;3.78;;;6.80;86.20;;;;;;5013284;28;20140;-75
2021/12/19 10:30:22;;;;;;;13.00;4.95;;;6.80;86.20;;;;;;5012949;28;20137;-74
2021/12/19 10:32:54;;;;;;;11.52;5.43;;;6.80;86.20;;;;;;5010345;28;20038;-75
2021/12/19 10:35:24;;;;;;;11.40;5.18;;;6.90;86.20;;;;;;5008626;28;20076;-74
2021/12/19 10:37:51;;;;;;;13.32;5.80;;;6.90;86.20;;;;;;5010955;28;20141;-76
2021/12/19 10:40:19;;;;;;;11.05;4.93;;;6.90;86.20;;;;;;5009828;28;20077;-75
2021/12/19 10:42:50;;;;;;;11.27;5.45;;;6.90;86.30;;;;;;5010622;28;20419;-74
2021/12/19 10:45:36;;;;;;;11.00;4.65;;;6.90;86.10;;;;;;5009623;28;20076;-75
2021/12/19 10:48:25;;;;;;;11.35;5.03;;;6.90;86.00;;;;;;5009593;28;20069;-75
2021/12/19 10:50:57;;;;;;;12.73;5.05;;;6.90;85.90;;;;;;5005159;28;20058;-74
2021/12/19 10:53:27;;;;;;;11.90;5.35;;;6.90;85.90;;;;;;5007748;28;20050;-73
2021/12/19 10:55:54;;;;;;;9.73;4.22;;;6.90;85.90;;;;;;5010512;28;20121;-73
2021/12/19 10:58:26;;;;;;;12.18;4.97;;;7.00;85.80;;;;;;5009421;28;20160;-73
2021/12/19 11:01:04;;;;;;;11.25;4.80;;;7.00;85.90;;;;;;5007706;28;20033;-75
2021/12/19 11:03:39;;;;;;;10.50;4.47;;;6.90;85.70;;;;;;5010280;28;20046;-73
2021/12/19 11:06:22;;;;;;;13.05;5.30;;;7.00;85.70;;;;;;5010385;28;20053;-73
2021/12/19 11:08:50;;;;;;;14.38;4.90;;;7.00;85.80;;;;;;5009067;28;20073;-74
2021/12/19 11:11:33;;;;;;;13.45;4.90;;;7.00;85.80;;;;;;5009584;28;20048;-75
2021/12/19 11:14:03;;;;;;;12.45;5.15;;;7.00;85.80;;;;;;5009685;28;20050;-75
2021/12/19 11:16:31;;;;;;;13.07;4.85;;;7.00;85.80;;;;;;5010677;28;20038;-74
2021/12/19 11:18:58;;;;;;;14.88;5.53;;;7.10;85.80;;;;;;5011226;28;20046;-74
2021/12/19 11:21:25;;;;;;;11.73;5.63;;;7.10;85.80;;;;;;5012066;28;20571;-74
2021/12/19 11:23:54;;;;;;;10.30;4.82;;;7.10;85.80;;;;;;5011773;28;20069;-76
2021/12/19 11:26:21;;;;;;;10.93;5.43;;;7.10;85.70;;;;;;5011390;28;20480;-73
2021/12/19 11:28:49;;;;;;;16.20;6.22;;;7.10;85.70;;;;;;5011803;28;20053;-74
2021/12/19 11:31:20;;;;;;;12.52;4.60;;;7.10;85.60;;;;;;5009384;28;20051;-73
2021/12/19 11:34:12;;;;;;;14.15;5.35;;;7.10;85.50;;;;;;5010517;28;20137;-74
2021/12/19 11:36:43;;;;;;;15.23;5.97;;;7.20;85.50;;;;;;5011095;28;20042;-74
2021/12/19 11:39:10;;;;;;;;;;;7.20;85.50;;;;;;5011633;28;20121;-76
2021/12/19 11:41:39;;;;;;;14.57;5.47;;;7.20;85.50;;;;;;5010058;28;19940;-74
2021/12/19 11:44:09;;;;;;;13.15;5.72;;;7.20;85.40;;;;;;5010980;28;20046;-77
2021/12/19 11:46:46;;;;;;;13.82;5.22;;;7.20;85.30;;;;;;5010664;28;20060;-75
2021/12/19 11:49:19;;;;;;;13.63;6.30;;;7.20;85.30;;;;;;5010921;28;20052;-75
2021/12/19 11:51:46;;;;;;;14.57;5.47;;;7.20;85.30;;;;;;5010109;28;20349;-74
2021/12/19 11:54:16;;;;;;;14.35;5.97;;;7.20;85.20;;;;;;5009777;28;20124;-76
2021/12/19 11:57:08;;;;;;;15.38;5.50;;;7.20;85.20;;;;;;5000951;28;20486;-74
2021/12/19 11:59:35;;;;;;;15.68;6.97;;;7.20;85.20;;;;;;5011472;28;20054;-74
2021/12/19 12:02:22;;;;;;;13.07;6.05;;;7.30;85.10;;;;;;5008273;28;20120;-75
2021/12/19 12:05:23;;;;;;;14.63;5.43;;;7.30;85.00;;;;;;5010109;28;20052;-76
2021/12/19 12:08:13;;;;;;;12.23;5.43;;;7.30;85.00;;;;;;5010703;28;20064;-74
2021/12/19 12:11:10;;;;;;;13.32;5.35;;;7.30;84.90;;;;;;5009562;28;20064;-75
2021/12/19 12:13:39;;;;;;;11.15;5.40;;;7.30;85.00;;;;;;5009427;28;20559;-75
2021/12/19 12:16:37;;;;;;;12.07;5.50;;;7.40;85.00;;;;;;5010270;28;20046;-74
2021/12/19 12:19:07;;;;;;;13.73;6.38;;;7.40;85.00;;;;;;5008508;28;20103;-75
2021/12/19 12:21:40;;;;;;;14.95;5.75;;;7.40;84.90;;;;;;5008316;28;20057;-73
2021/12/19 12:24:16;;;;;;;12.55;5.57;;;7.40;84.80;;;;;;5008780;28;20056;-75
2021/12/19 12:26:55;;;;;;;14.68;5.50;;;7.40;84.80;;;;;;5009244;28;20120;-75
2021/12/19 12:29:22;;;;;;;13.50;5.50;;;7.40;84.80;;;;;;5008322;28;20048;-74
2021/12/19 12:31:50;;;;;;;14.68;5.88;;;7.40;84.80;;;;;;5009248;28;20137;-74
2021/12/19 12:34:19;;;;;;;12.25;5.32;;;7.40;84.90;;;;;;5009264;28;20128;-75
2021/12/19 12:36:47;;;;;;;12.65;5.93;;;7.40;84.80;;;;;;5008251;28;20112;-74
2021/12/19 12:39:20;;;;;;;11.20;4.90;;;7.40;84.80;;;;;;5009501;28;20120;-74
2021/12/19 12:41:58;;;;;;;14.80;5.47;;;7.40;84.80;;;;;;5009016;28;20050;-74
2021/12/19 12:44:25;;;;;;;13.05;5.15;;;7.40;84.80;;;;;;5008775;28;20474;-76
2021/12/19 12:46:52;;;;;;;15.93;6.13;;;7.40;84.70;;;;;;5008027;28;20046;-74
2021/12/19 12:49:22;;;;;;;14.32;5.43;;;7.40;84.60;;;;;;5011313;28;20053;-74
2021/12/19 12:51:51;;;;;;;15.88;5.78;;;7.40;84.60;;;;;;5012573;28;20487;-77
2021/12/19 12:54:21;;;;;;;12.90;6.30;;;7.40;84.50;;;;;;5011966;28;20518;-76
2021/12/19 12:56:51;;;;;;;13.02;5.55;;;7.40;84.50;;;;;;5014374;28;20045;-75
2021/12/19 12:59:20;;;;;;;10.50;5.03;;;7.40;84.60;;;;;;5014182;28;20258;-75
2021/12/19 13:01:50;;;;;;;14.88;6.10;;;7.40;84.50;;;;;;5012266;28;20543;-74
2021/12/19 13:04:21;;;;;;;11.50;4.88;;;7.40;84.50;;;;;;5014475;28;20053;-74
2021/12/19 13:07:01;;;;;;;14.10;5.07;;;7.40;84.50;;;;;;5014355;28;20088;-74
2021/12/19 13:09:32;;;;;;;13.45;4.88;;;7.40;84.50;;;;;;5013832;28;20052;-74
2021/12/19 13:12:05;;;;;;;15.13;5.68;;;7.40;84.60;;;;;;5015259;28;20042;-75
2021/12/19 13:14:35;;;;;;;15.00;5.47;;;7.40;84.70;;;;;;5013850;28;20050;-76
2021/12/19 13:17:04;;;;;;;13.60;4.70;;;7.40;84.70;;;;;;5014154;28;20054;-75
2021/12/19 13:19:39;;;;;;;14.73;5.93;;;7.50;84.60;;;;;;5014081;28;20496;-74
2021/12/19 13:22:08;;;;;;;15.50;5.50;;;7.50;84.40;;;;;;5013602;28;20056;-73
2021/12/19 13:24:36;;;;;;;15.10;5.95;;;7.40;84.40;;;;;;5014359;28;20129;-75
2021/12/19 13:27:15;;;;;;;13.70;5.57;;;7.40;84.50;;;;;;5012629;28;20057;-75
2021/12/19 13:29:55;;;;;;;13.77;5.47;;;7.50;84.50;;;;;;5013906;28;20041;-74
2021/12/19 13:32:29;;;;;;;16.42;7.00;;;7.50;84.50;;;;;;5013166;28;20048;-74
2021/12/19 13:34:59;;;;;;;15.55;5.72;;;7.50;84.40;;;;;;5013624;28;20056;-74
2021/12/19 13:37:27;;;;;;;12.43;5.40;;;7.50;84.40;;;;;;5013841;28;20128;-76
2021/12/19 13:40:13;;;;;;;14.52;5.95;;;7.50;84.30;;;;;;5013128;28;20125;-75
2021/12/19 13:42:43;;;;;;;13.52;6.10;;;7.50;84.30;;;;;;5014105;28;20046;-75
2021/12/19 13:45:38;;;;;;;16.33;5.65;;;7.50;84.40;;;;;;5013421;28;20042;-74
2021/12/19 13:48:09;;;;;;;15.95;6.10;;;7.50;84.40;;;;;;5012849;28;20099;-75
2021/12/19 13:50:44;;;;;;;14.93;5.80;;;7.50;84.40;;;;;;5013208;28;20124;-73
2021/12/19 13:53:17;;;;;;;13.77;5.55;;;7.50;84.50;;;;;;5013443;28;20444;-73
2021/12/19 13:55:47;;;;;;;13.68;6.95;;;7.50;84.60;;;;;;5013436;28;20046;-75
2021/12/19 13:58:14;;;;;;;16.10;6.35;;;7.50;84.60;;;;;;5010907;28;20048;-75
2021/12/19 14:00:44;;;;;;;16.88;5.80;;;7.50;84.70;;;;;;5007590;28;20167;-76